createdAt,value
2017-11-03T00:00:15.414Z,95.37
2017-11-03T00:05:51.903Z,69.10
2017-11-03T00:08:25.037Z,70.10
2017-11-03T00:10:59.280Z,67.60
2017-11-03T00:13:33.704Z,74.00
2017-11-03T00:16:07.325Z,68.40
2017-11-03T00:18:40.063Z,72.80
2017-11-03T00:21:12.782Z,81.90
2017-11-03T00:23:45.101Z,87.63
2017-11-03T00:26:17.906Z,86.83
2017-11-03T00:28:49.887Z,79.53
2017-11-03T00:31:22.128Z,81.60
2017-11-03T00:33:54.084Z,80.40
2017-11-03T00:36:27.729Z,74.77
2017-11-03T00:39:05.705Z,83.57
2017-11-03T00:41:40.094Z,116.53
2017-11-03T00:44:13.122Z,102.70
2017-11-03T00:46:45.739Z,92.87
2017-11-03T00:49:17.376Z,87.90
2017-11-03T00:51:50.785Z,83.90
2017-11-03T00:54:24.122Z,96.17
2017-11-03T00:56:59.133Z,90.90
2017-11-03T00:59:30.944Z,81.97
2017-11-03T01:02:06.190Z,77.63
2017-11-03T01:04:40.566Z,71.40
2017-11-03T01:07:14.699Z,63.70
2017-11-03T01:09:46.664Z,61.23
2017-11-03T01:12:18.583Z,47.63
2017-11-03T01:14:51.538Z,48.87
2017-11-03T01:17:23.847Z,47.53
2017-11-03T01:19:54.928Z,45.20
2017-11-03T01:22:26.951Z,53.43
2017-11-03T01:24:59.181Z,63.47
2017-11-03T01:27:32.031Z,63.60
2017-11-03T01:30:04.780Z,63.10
2017-11-03T01:32:37.545Z,51.20
2017-11-03T01:35:09.825Z,48.37
2017-11-03T01:37:43.020Z,49.50
2017-11-03T01:40:16.689Z,48.40
2017-11-03T01:42:48.707Z,50.80
2017-11-03T01:45:20.412Z,49.90
2017-11-03T01:47:52.136Z,53.00
2017-11-03T01:50:24.767Z,49.33
2017-11-03T01:52:58.088Z,50.80
2017-11-03T01:55:30.807Z,55.40
2017-11-03T01:58:04.205Z,54.30
2017-11-03T02:00:36.477Z,55.47
2017-11-03T02:03:13.662Z,54.60
2017-11-03T02:05:45.400Z,57.37
2017-11-03T02:08:17.332Z,60.00
2017-11-03T02:10:49.216Z,62.67
2017-11-03T02:13:20.482Z,60.40
2017-11-03T02:16:01.450Z,58.97
2017-11-03T02:18:35.728Z,60.10
2017-11-03T02:21:10.620Z,62.30
2017-11-03T02:23:46.297Z,46.77
2017-11-03T02:26:19.462Z,38.37
2017-11-03T02:28:53.931Z,33.47
2017-11-03T02:31:26.074Z,39.23
2017-11-03T02:33:58.065Z,46.07
2017-11-03T02:36:30.002Z,50.63
2017-11-03T02:39:04.938Z,54.83
2017-11-03T02:41:36.748Z,62.17
2017-11-03T02:44:11.023Z,68.67
2017-11-03T02:46:43.866Z,72.30
2017-11-03T02:49:18.100Z,74.40
2017-11-03T02:51:49.891Z,76.50
2017-11-03T02:54:21.767Z,71.00
2017-11-03T02:56:53.479Z,72.40
2017-11-03T02:59:25.263Z,69.90
2017-11-03T03:01:57.026Z,71.80
2017-11-03T03:04:29.043Z,68.90
2017-11-03T03:07:05.994Z,63.00
2017-11-03T03:09:40.200Z,54.37
2017-11-03T03:12:13.661Z,49.70
2017-11-03T03:14:48.015Z,43.73
2017-11-03T03:20:11.783Z,59.53
2017-11-03T03:22:46.034Z,59.07
2017-11-03T03:25:20.710Z,56.00
2017-11-03T03:27:55.004Z,75.33
2017-11-03T03:30:29.986Z,121.47
2017-11-03T03:33:04.527Z,132.00
2017-11-03T03:35:36.749Z,82.37
2017-11-03T03:38:09.913Z,70.00
2017-11-03T03:40:58.012Z,85.70
2017-11-03T03:43:29.291Z,66.27
2017-11-03T03:46:01.610Z,65.83
2017-11-03T03:48:37.926Z,60.77
2017-11-03T03:51:15.371Z,58.93
2017-11-03T03:53:49.262Z,58.20
2017-11-03T03:56:22.210Z,52.47
2017-11-03T03:58:54.293Z,51.40
2017-11-03T04:01:26.271Z,58.80
2017-11-03T04:03:58.221Z,58.83
2017-11-03T04:06:30.463Z,54.57
2017-11-03T04:09:04.497Z,61.90
2017-11-03T04:11:36.635Z,61.33
2017-11-03T04:14:09.404Z,73.03
2017-11-03T04:16:40.684Z,75.77
2017-11-03T04:19:12.600Z,60.27
2017-11-03T04:21:45.626Z,54.40
2017-11-03T04:24:17.741Z,65.57
2017-11-03T04:26:53.023Z,63.87
2017-11-03T04:29:25.314Z,67.73
2017-11-03T04:31:57.629Z,91.40
2017-11-03T04:34:30.100Z,66.13
2017-11-03T04:37:08.792Z,110.30
2017-11-03T04:39:44.478Z,86.20
2017-11-03T04:42:23.149Z,99.27
2017-11-03T04:44:58.295Z,119.50
2017-11-03T04:47:32.323Z,93.10
2017-11-03T04:50:04.471Z,84.23
2017-11-03T04:52:36.376Z,103.17
2017-11-03T04:55:08.549Z,82.73
2017-11-03T04:57:40.389Z,78.00
2017-11-03T05:00:14.515Z,77.10
2017-11-03T05:02:48.365Z,104.10
2017-11-03T05:05:21.885Z,92.90
2017-11-03T05:07:53.715Z,77.73
2017-11-03T05:10:24.913Z,74.47
2017-11-03T05:12:56.664Z,85.87
2017-11-03T05:15:28.420Z,90.20
2017-11-03T05:18:00.008Z,81.97
2017-11-03T05:20:30.571Z,78.33
2017-11-03T05:23:01.667Z,70.60
2017-11-03T05:25:33.197Z,103.17
2017-11-03T05:28:04.678Z,103.60
2017-11-03T05:30:35.955Z,109.13
2017-11-03T05:33:07.692Z,238.47
2017-11-03T05:35:43.456Z,110.43
2017-11-03T05:38:15.707Z,76.03
2017-11-03T05:40:48.205Z,68.57
2017-11-03T05:43:20.395Z,56.67
2017-11-03T05:45:52.954Z,52.90
2017-11-03T05:48:25.771Z,97.80
2017-11-03T05:50:58.538Z,619.97
2017-11-03T05:53:31.073Z,270.00
2017-11-03T05:56:03.310Z,519.07
2017-11-03T05:58:35.012Z,196.57
2017-11-03T06:01:17.155Z,164.50
2017-11-03T06:03:50.640Z,271.60
2017-11-03T06:06:22.842Z,326.90
2017-11-03T06:08:55.340Z,265.20
2017-11-03T06:11:27.377Z,592.60
2017-11-03T06:13:59.486Z,643.50
2017-11-03T06:16:32.786Z,623.37
2017-11-03T06:19:08.133Z,505.20
2017-11-03T06:21:40.350Z,433.07
2017-11-03T06:24:14.060Z,340.17
2017-11-03T06:26:45.412Z,321.30
2017-11-03T06:29:17.933Z,345.43
2017-11-03T06:31:50.610Z,406.57
2017-11-03T06:34:22.794Z,373.17
2017-11-03T06:36:53.945Z,294.33
2017-11-03T06:39:25.360Z,340.77
2017-11-03T06:41:57.465Z,233.03
2017-11-03T06:44:30.725Z,157.90
2017-11-03T06:47:04.969Z,172.30
2017-11-03T06:49:36.869Z,167.53
2017-11-03T06:52:29.018Z,116.77
2017-11-03T06:55:03.981Z,117.73
2017-11-03T06:57:36.918Z,107.70
2017-11-03T07:00:22.248Z,124.50
2017-11-03T07:02:54.760Z,116.27
2017-11-03T07:05:29.393Z,139.53
2017-11-03T07:08:05.930Z,135.47
2017-11-03T07:10:37.796Z,139.00
2017-11-03T07:13:21.621Z,131.53
2017-11-03T07:15:54.978Z,95.90
2017-11-03T07:18:31.518Z,95.53
2017-11-03T07:21:06.541Z,89.40
2017-11-03T07:23:39.550Z,74.10
2017-11-03T07:26:17.395Z,49.70
2017-11-03T07:28:49.598Z,54.10
2017-11-03T07:31:21.808Z,51.50
2017-11-03T07:33:55.186Z,52.07
2017-11-03T07:36:36.860Z,48.97
2017-11-03T07:39:20.963Z,50.20
2017-11-03T07:41:53.657Z,46.50
2017-11-03T07:44:24.708Z,46.00
2017-11-03T07:46:56.400Z,52.00
2017-11-03T07:49:30.602Z,44.80
2017-11-03T07:52:06.271Z,36.00
2017-11-03T07:54:42.313Z,43.53
2017-11-03T07:57:17.641Z,48.27
2017-11-03T07:59:51.407Z,50.73
2017-11-03T08:02:23.433Z,44.97
2017-11-03T08:05:03.109Z,40.30
2017-11-03T08:07:35.092Z,40.13
2017-11-03T08:10:15.267Z,40.60
2017-11-03T08:12:47.224Z,35.60
2017-11-03T08:15:22.155Z,35.60
2017-11-03T08:17:56.652Z,37.40
2017-11-03T08:20:27.561Z,40.50
2017-11-03T08:23:00.300Z,36.93
2017-11-03T08:25:33.166Z,37.00
2017-11-03T08:28:07.827Z,37.60
2017-11-03T08:30:44.174Z,35.23
2017-11-03T08:33:15.872Z,36.90
2017-11-03T08:35:52.958Z,36.93
2017-11-03T08:38:26.859Z,35.47
2017-11-03T08:40:59.830Z,35.03
2017-11-03T08:43:31.136Z,37.47
2017-11-03T08:46:09.441Z,35.43
2017-11-03T08:48:42.983Z,38.47
2017-11-03T08:51:22.712Z,34.60
2017-11-03T08:53:58.408Z,36.10
2017-11-03T08:56:29.252Z,33.87
2017-11-03T08:59:08.469Z,37.50
2017-11-03T09:01:40.300Z,32.60
2017-11-03T09:04:15.521Z,36.73
2017-11-03T09:06:48.552Z,36.83
2017-11-03T09:09:20.409Z,41.27
2017-11-03T09:11:51.843Z,33.23
2017-11-03T09:14:23.065Z,34.10
2017-11-03T09:16:55.067Z,33.63
2017-11-03T09:19:27.656Z,28.47
2017-11-03T09:21:59.963Z,29.40
2017-11-03T09:24:32.793Z,27.43
2017-11-03T09:27:17.369Z,29.10
2017-11-03T09:29:49.579Z,29.20
2017-11-03T09:32:31.532Z,31.90
2017-11-03T09:35:12.211Z,29.57
2017-11-03T09:37:46.403Z,29.80
2017-11-03T09:40:18.627Z,29.20
2017-11-03T09:42:52.684Z,28.60
2017-11-03T09:45:25.440Z,29.20
2017-11-03T09:47:58.332Z,28.37
2017-11-03T09:50:31.192Z,28.67
2017-11-03T09:53:08.050Z,28.73
2017-11-03T09:55:43.703Z,30.90
2017-11-03T09:58:15.150Z,28.30
2017-11-03T10:00:46.951Z,27.30
2017-11-03T10:03:20.544Z,28.63
2017-11-03T10:05:53.201Z,30.13
2017-11-03T10:08:24.274Z,29.40
2017-11-03T10:10:55.491Z,28.77
2017-11-03T10:13:27.633Z,27.30
2017-11-03T10:15:58.757Z,26.33
2017-11-03T10:18:31.060Z,27.30
2017-11-03T10:21:26.726Z,27.20
2017-11-03T10:24:01.671Z,26.10
2017-11-03T10:26:34.843Z,29.23
2017-11-03T10:29:13.036Z,27.77
2017-11-03T10:31:45.050Z,28.40
2017-11-03T10:34:19.024Z,30.70
2017-11-03T10:37:07.134Z,29.40
2017-11-03T10:39:39.413Z,29.80
2017-11-03T10:42:16.825Z,28.70
2017-11-03T10:44:47.905Z,31.00
2017-11-03T10:47:25.538Z,27.40
2017-11-03T10:49:57.576Z,29.73
2017-11-03T10:52:30.101Z,29.80
2017-11-03T10:55:03.268Z,28.83
2017-11-03T10:57:34.815Z,32.17
2017-11-03T11:00:22.131Z,29.00
2017-11-03T11:02:54.499Z,28.03
2017-11-03T11:05:26.389Z,28.70
2017-11-03T11:07:57.680Z,28.50
2017-11-03T11:10:31.453Z,29.83
2017-11-03T11:13:09.591Z,28.03
2017-11-03T11:15:40.087Z,28.60
2017-11-03T11:18:12.096Z,32.93
2017-11-03T11:20:42.664Z,28.97
2017-11-03T11:23:18.639Z,31.27
2017-11-03T11:25:49.969Z,28.07
2017-11-03T11:28:21.658Z,28.00
2017-11-03T11:30:52.333Z,26.90
2017-11-03T11:33:26.436Z,28.90
2017-11-03T11:35:57.900Z,30.57
2017-11-03T11:38:30.979Z,30.13
2017-11-03T11:41:12.691Z,27.70
2017-11-03T11:43:48.204Z,30.03
2017-11-03T11:46:23.773Z,29.70
2017-11-03T11:48:54.860Z,29.37
2017-11-03T11:51:28.750Z,30.80
2017-11-03T11:54:05.036Z,30.57
2017-11-03T11:56:38.317Z,31.20
2017-11-03T11:59:10.013Z,30.10
2017-11-03T12:01:41.872Z,28.30
2017-11-03T12:04:15.256Z,32.03
2017-11-03T12:06:46.321Z,33.47
2017-11-03T12:09:17.033Z,30.33
2017-11-03T12:11:50.972Z,31.27
2017-11-03T12:14:28.399Z,30.87
2017-11-03T12:17:20.615Z,32.77
2017-11-03T12:20:09.753Z,34.20
2017-11-03T12:22:45.301Z,30.03
2017-11-03T12:25:20.677Z,32.67
2017-11-03T12:27:53.132Z,33.90
2017-11-03T12:30:25.049Z,29.13
2017-11-03T12:32:56.744Z,30.73
2017-11-03T12:35:30.727Z,29.03
2017-11-03T12:38:12.950Z,28.97
2017-11-03T12:40:47.286Z,33.93
2017-11-03T12:43:21.658Z,31.57
2017-11-03T12:49:28.720Z,37.53
2017-11-03T12:52:01.770Z,30.90
2017-11-03T12:57:20.776Z,31.93
2017-11-03T12:59:58.771Z,33.57
2017-11-03T13:02:34.509Z,34.20
2017-11-03T13:05:08.974Z,33.80
2017-11-03T13:07:43.924Z,33.00
2017-11-03T13:10:22.975Z,34.73
2017-11-03T13:12:56.340Z,36.90
2017-11-03T13:15:31.545Z,36.43
2017-11-03T13:18:21.045Z,39.07
2017-11-03T13:20:52.614Z,35.23
2017-11-03T13:23:23.983Z,33.63
2017-11-03T13:25:58.913Z,34.17
2017-11-03T13:28:30.675Z,35.70
2017-11-03T13:31:05.805Z,37.30
2017-11-03T13:33:43.060Z,37.40
2017-11-03T13:36:16.216Z,36.07
2017-11-03T13:38:49.053Z,37.47
2017-11-03T13:41:21.424Z,40.10
2017-11-03T13:43:54.576Z,36.37
2017-11-03T13:46:28.085Z,34.53
2017-11-03T13:49:03.354Z,42.13
2017-11-03T13:51:39.404Z,38.07
2017-11-03T13:54:14.265Z,39.07
2017-11-03T13:56:46.656Z,41.70
2017-11-03T13:59:18.966Z,39.87
2017-11-03T14:01:52.287Z,41.83
2017-11-03T14:04:23.656Z,41.13
2017-11-03T14:06:55.604Z,37.40
2017-11-03T14:09:26.216Z,40.30
2017-11-03T14:11:59.686Z,38.63
2017-11-03T14:14:33.612Z,40.43
2017-11-03T14:17:11.969Z,40.77
2017-11-03T14:19:42.464Z,38.03
2017-11-03T14:22:13.861Z,40.67
2017-11-03T14:24:46.429Z,41.40
2017-11-03T14:27:18.478Z,39.73
2017-11-03T14:29:52.893Z,40.43
2017-11-03T14:32:27.700Z,39.53
2017-11-03T14:35:17.542Z,41.33
2017-11-03T14:37:59.699Z,42.80
2017-11-03T14:40:39.407Z,40.83
2017-11-03T14:43:15.073Z,42.30
2017-11-03T14:45:49.971Z,40.33
2017-11-03T14:48:26.025Z,37.20
2017-11-03T15:05:34.245Z,38.30
2017-11-03T15:08:04.248Z,43.40
2017-11-03T15:10:33.873Z,44.37
2017-11-03T15:13:11.525Z,40.60
2017-11-03T15:15:40.754Z,40.07
2017-11-03T15:22:25.813Z,41.23
2017-11-03T15:31:37.401Z,39.07
2017-11-03T15:34:21.589Z,40.33
2017-11-03T15:36:55.319Z,40.13
2017-11-03T15:39:31.832Z,44.80
2017-11-03T15:42:07.164Z,42.90
2017-11-03T15:44:40.185Z,39.90
2017-11-03T15:47:21.979Z,40.13
2017-11-03T15:49:55.349Z,41.90
2017-11-03T15:52:31.174Z,41.67
2017-11-03T15:55:21.320Z,41.20
2017-11-03T15:57:55.057Z,42.37
2017-11-03T16:00:30.745Z,42.87
2017-11-03T16:03:08.000Z,43.00
2017-11-03T16:05:42.939Z,41.63
2017-11-03T16:08:19.216Z,41.20
2017-11-03T16:10:56.981Z,43.30
2017-11-03T16:13:31.940Z,42.60
2017-11-03T16:16:37.869Z,39.93
2017-11-03T16:19:20.695Z,37.93
2017-11-03T16:21:55.921Z,34.73
2017-11-03T16:24:26.671Z,37.40
2017-11-03T16:26:57.764Z,37.37
2017-11-03T16:29:31.387Z,34.93
2017-11-03T16:32:12.368Z,35.80
2017-11-03T16:34:46.832Z,36.97
2017-11-03T16:37:26.067Z,37.37
2017-11-03T16:39:59.255Z,39.90
2017-11-03T16:42:34.305Z,39.07
2017-11-03T16:45:16.056Z,40.03
2017-11-03T16:47:47.691Z,45.17
2017-11-03T16:50:25.021Z,47.90
2017-11-03T16:53:08.873Z,48.73
2017-11-03T16:55:45.989Z,54.53
2017-11-03T16:58:19.699Z,53.93
2017-11-03T17:00:53.348Z,65.93
2017-11-03T17:03:29.143Z,52.77
2017-11-03T17:06:01.954Z,57.10
2017-11-03T17:08:35.349Z,50.97
2017-11-03T17:11:19.243Z,63.77
2017-11-03T17:13:51.573Z,60.93
2017-11-03T17:16:25.059Z,59.23
2017-11-03T17:18:57.322Z,76.53
2017-11-03T17:21:31.989Z,77.27
2017-11-03T17:24:17.429Z,54.33
2017-11-03T17:26:53.155Z,46.17
2017-11-03T17:29:26.206Z,57.23
2017-11-03T17:32:05.558Z,63.63
2017-11-03T17:34:39.433Z,52.80
2017-11-03T17:37:24.024Z,70.07
2017-11-03T17:39:57.011Z,64.63
2017-11-03T17:42:30.569Z,57.90
2017-11-03T17:45:11.749Z,45.40
2017-11-03T17:47:50.263Z,44.20
2017-11-03T17:50:21.821Z,46.90
2017-11-03T17:52:54.011Z,55.23
2017-11-03T17:55:25.280Z,61.77
2017-11-03T17:57:59.404Z,61.77
2017-11-03T18:00:34.916Z,60.90
2017-11-03T18:03:18.961Z,65.13
2017-11-03T18:05:50.581Z,57.90
2017-11-03T18:08:21.643Z,45.27
2017-11-03T18:10:55.406Z,177.77
2017-11-03T18:13:27.103Z,165.03
2017-11-03T18:15:57.536Z,68.37
2017-11-03T18:18:30.783Z,258.47
2017-11-03T18:21:12.472Z,82.93
2017-11-03T18:23:46.578Z,271.60
2017-11-03T18:26:46.004Z,208.23
2017-11-03T18:29:19.130Z,64.40
2017-11-03T18:31:50.676Z,35.43
2017-11-03T18:37:22.244Z,56.10
2017-11-03T18:40:14.958Z,96.23
2017-11-03T18:42:45.623Z,340.80
2017-11-03T18:45:21.292Z,315.20
2017-11-03T18:47:55.039Z,66.57
2017-11-03T18:50:26.901Z,41.27
2017-11-03T18:52:57.708Z,56.10
2017-11-03T18:55:33.638Z,31.13
2017-11-03T18:58:08.986Z,58.67
2017-11-03T19:00:41.396Z,173.67
2017-11-03T19:03:29.285Z,377.93
2017-11-03T19:06:05.869Z,359.00
2017-11-03T19:08:38.134Z,191.73
2017-11-03T19:11:22.113Z,161.37
2017-11-03T19:16:54.650Z,421.00
2017-11-03T19:19:29.602Z,147.27
2017-11-03T19:22:07.303Z,317.73
2017-11-03T19:24:42.746Z,359.70
2017-11-03T19:27:19.559Z,343.70
2017-11-03T19:29:53.149Z,357.93
2017-11-03T19:32:25.641Z,549.23
2017-11-03T19:34:58.481Z,371.43
2017-11-03T19:37:30.690Z,236.50
2017-11-03T19:40:14.910Z,335.00
2017-11-03T19:42:47.083Z,136.67
2017-11-03T19:45:20.980Z,394.23
2017-11-03T19:47:56.021Z,231.03
2017-11-03T19:50:27.951Z,555.47
2017-11-03T19:53:00.791Z,369.13
2017-11-03T19:55:32.635Z,557.87
2017-11-03T19:58:17.781Z,298.20
2017-11-03T20:00:51.336Z,237.20
2017-11-03T20:03:22.984Z,252.70
2017-11-03T20:06:13.604Z,140.10
2017-11-03T20:08:46.170Z,320.90
2017-11-03T20:11:24.411Z,210.73
2017-11-03T20:13:59.545Z,308.67
2017-11-03T20:16:34.813Z,373.70
2017-11-03T20:19:22.129Z,168.77
2017-11-03T20:22:00.514Z,630.13
2017-11-03T20:24:34.755Z,354.00
2017-11-03T20:27:15.199Z,513.27
2017-11-03T20:29:48.229Z,370.87
2017-11-03T20:32:20.759Z,603.40
2017-11-03T20:34:52.425Z,477.60
2017-11-03T20:37:25.464Z,385.70
2017-11-03T20:39:57.410Z,681.57
2017-11-03T20:42:30.894Z,174.73
2017-11-03T20:45:05.399Z,527.40
2017-11-03T20:47:41.514Z,345.60
2017-11-03T20:50:15.846Z,604.00
2017-11-03T20:52:49.101Z,678.50
2017-11-03T20:55:33.207Z,353.53
2017-11-03T20:58:07.137Z,384.93
2017-11-03T21:00:38.100Z,248.00
2017-11-03T21:03:26.927Z,250.30
2017-11-03T21:06:04.335Z,433.87
2017-11-03T21:08:37.391Z,515.27
2017-11-03T21:11:16.689Z,668.43
2017-11-03T21:13:49.779Z,287.53
2017-11-03T21:16:24.067Z,245.13
2017-11-03T21:18:56.798Z,182.73
2017-11-03T21:21:31.957Z,193.17
2017-11-03T21:24:10.598Z,518.10
2017-11-03T21:26:42.562Z,429.80
2017-11-03T21:29:24.793Z,166.83
2017-11-03T21:31:57.456Z,383.43
2017-11-03T21:34:30.041Z,446.13
2017-11-03T21:37:04.711Z,194.23
2017-11-03T21:39:37.145Z,113.10
2017-11-03T21:42:14.314Z,109.37
2017-11-03T21:44:48.409Z,116.80
2017-11-03T21:47:20.206Z,133.33
2017-11-03T21:49:54.919Z,106.07
2017-11-03T21:52:28.250Z,118.00
2017-11-03T21:55:00.314Z,116.70
2017-11-03T21:57:32.925Z,175.50
2017-11-03T22:00:11.324Z,155.27
2017-11-03T22:02:44.145Z,162.90
2017-11-03T22:05:20.459Z,134.33
2017-11-03T22:07:52.907Z,264.30
2017-11-03T22:10:27.526Z,288.00
2017-11-03T22:13:04.958Z,231.63
2017-11-03T22:15:36.653Z,127.20
2017-11-03T22:18:14.414Z,207.60
2017-11-03T22:20:46.434Z,199.83
2017-11-03T22:23:30.978Z,267.60
2017-11-03T22:26:10.890Z,215.83
2017-11-03T22:28:46.646Z,531.87
2017-11-03T22:31:19.315Z,375.43
2017-11-03T22:33:52.198Z,190.30
2017-11-03T22:36:24.654Z,127.37
2017-11-03T22:38:57.785Z,166.00
2017-11-03T22:41:31.289Z,180.80
2017-11-03T22:44:07.651Z,143.30
2017-11-03T22:46:40.195Z,187.03
2017-11-03T22:49:20.663Z,320.63
2017-11-03T22:51:53.043Z,387.03
2017-11-03T22:54:26.905Z,388.27
2017-11-03T22:56:58.264Z,241.70
2017-11-03T22:59:31.013Z,124.83
2017-11-03T23:02:06.222Z,142.00
2017-11-03T23:04:37.990Z,159.13
2017-11-03T23:07:24.072Z,158.23
2017-11-03T23:09:54.309Z,121.10
2017-11-03T23:12:25.886Z,217.33
2017-11-03T23:14:58.109Z,413.70
2017-11-03T23:17:32.063Z,580.20
2017-11-03T23:20:06.450Z,146.53
2017-11-03T23:22:37.384Z,507.90
2017-11-03T23:25:21.883Z,505.87
2017-11-03T23:27:53.063Z,149.43
2017-11-03T23:30:24.170Z,128.23
2017-11-03T23:32:56.210Z,204.40
2017-11-03T23:35:31.919Z,125.70
2017-11-03T23:38:05.477Z,101.33
2017-11-03T23:40:37.164Z,124.57
2017-11-03T23:43:15.971Z,413.33
2017-11-03T23:45:48.555Z,131.80
2017-11-03T23:48:23.842Z,139.80
2017-11-03T23:50:57.345Z,106.70
2017-11-03T23:53:29.049Z,120.93
2017-11-03T23:56:02.948Z,135.27
2017-11-03T23:58:36.395Z,168.47
